createdAt,value
2019-06-01T00:03:53.367Z,17.83
2019-06-01T00:08:58.204Z,17.82
2019-06-01T00:14:03.066Z,17.49
2019-06-01T00:19:07.955Z,17.37
2019-06-01T00:24:12.903Z,17.31
2019-06-01T00:29:17.803Z,17.40
2019-06-01T00:34:22.746Z,17.50
2019-06-01T00:39:27.581Z,17.41
2019-06-01T00:44:32.541Z,17.26
2019-06-01T00:49:37.788Z,17.18
2019-06-01T00:54:43.180Z,17.25
2019-06-01T00:59:48.174Z,17.10
2019-06-01T01:05:02.262Z,17.02
2019-06-01T01:10:07.336Z,17.05
2019-06-01T01:15:12.368Z,17.08
2019-06-01T01:20:17.333Z,16.96
2019-06-01T01:25:22.406Z,16.99
2019-06-01T01:30:27.439Z,17.07
2019-06-01T01:35:32.464Z,16.99
2019-06-01T01:40:37.336Z,17.05
2019-06-01T01:45:42.885Z,17.05
2019-06-01T01:50:47.758Z,17.08
2019-06-01T01:55:52.998Z,16.84
2019-06-01T02:00:58.523Z,16.87
2019-06-01T02:06:04.662Z,16.93
2019-06-01T02:11:09.531Z,16.82
2019-06-01T02:16:14.420Z,16.89
2019-06-01T02:21:19.235Z,16.71
2019-06-01T02:26:24.117Z,16.56
2019-06-01T02:31:40.637Z,16.65
2019-06-01T02:36:35.683Z,16.47
2019-06-01T02:41:40.569Z,16.41
2019-06-01T02:46:45.411Z,16.27
2019-06-01T02:51:50.293Z,16.26
2019-06-01T02:56:55.837Z,16.05
2019-06-01T03:02:07.309Z,15.93
2019-06-01T03:07:10.043Z,16.09
2019-06-01T03:12:17.959Z,15.99
2019-06-01T03:17:24.558Z,16.06
2019-06-01T03:22:29.825Z,15.95
2019-06-01T03:27:36.409Z,15.96
2019-06-01T03:32:43.881Z,15.74
2019-06-01T03:37:47.973Z,15.64
2019-06-01T03:42:52.915Z,15.56
2019-06-01T03:47:57.775Z,15.61
2019-06-01T03:53:03.842Z,15.59
2019-06-01T03:58:09.175Z,15.65
2019-06-01T04:03:14.111Z,15.75
2019-06-01T04:08:18.974Z,15.88
2019-06-01T04:13:23.853Z,15.94
2019-06-01T04:18:28.734Z,15.92
2019-06-01T04:23:36.277Z,15.84
2019-06-01T04:28:40.224Z,15.79
2019-06-01T04:33:45.182Z,15.77
2019-06-01T04:38:50.061Z,15.84
2019-06-01T04:43:54.969Z,15.89
2019-06-01T04:48:59.877Z,16.02
2019-06-01T04:54:04.951Z,16.23
2019-06-01T04:59:29.893Z,16.21
2019-06-01T05:04:34.795Z,16.35
2019-06-01T05:09:39.790Z,16.60
2019-06-01T05:14:44.682Z,16.82
2019-06-01T05:19:49.546Z,17.02
2019-06-01T05:25:17.277Z,17.20
2019-06-01T05:30:29.558Z,17.37
2019-06-01T05:35:38.793Z,17.37
2019-06-01T05:41:03.149Z,17.52
2019-06-01T05:46:11.832Z,17.63
2019-06-01T05:51:18.497Z,17.64
2019-06-01T05:56:23.359Z,17.56
2019-06-01T06:01:28.229Z,17.58
2019-06-01T06:06:33.126Z,17.72
2019-06-01T06:11:38.027Z,17.89
2019-06-01T06:16:42.901Z,17.97
2019-06-01T06:21:47.773Z,18.00
2019-06-01T06:26:52.710Z,18.16
2019-06-01T06:31:57.546Z,18.16
2019-06-01T06:37:02.442Z,18.01
2019-06-01T06:42:07.286Z,18.16
2019-06-01T06:47:12.157Z,18.23
2019-06-01T06:52:17.449Z,18.34
2019-06-01T06:57:22.405Z,18.44
2019-06-01T07:02:27.276Z,18.61
2019-06-01T07:07:32.144Z,18.62
2019-06-01T07:12:37.030Z,18.78
2019-06-01T07:17:41.886Z,18.83
2019-06-01T07:22:46.754Z,19.02
2019-06-01T07:27:51.634Z,19.15
2019-06-01T07:32:56.488Z,19.24
2019-06-01T07:38:01.358Z,19.47
2019-06-01T07:43:06.309Z,19.49
2019-06-01T07:48:11.174Z,19.87
2019-06-01T07:53:16.080Z,19.86
2019-06-01T07:58:20.964Z,20.34
2019-06-01T08:03:28.468Z,20.37
2019-06-01T08:08:32.457Z,20.66
2019-06-01T08:13:37.356Z,20.63
2019-06-01T08:18:43.034Z,20.82
2019-06-01T08:23:47.936Z,20.99
2019-06-01T08:28:52.789Z,21.42
2019-06-01T08:33:57.651Z,21.28
2019-06-01T08:39:02.544Z,21.37
2019-06-01T08:44:07.859Z,21.62
2019-06-01T08:49:12.736Z,21.70
2019-06-01T08:54:19.651Z,21.76
2019-06-01T08:59:24.552Z,21.73
2019-06-01T09:04:30.682Z,21.61
2019-06-01T09:09:35.684Z,21.70
2019-06-01T09:14:40.545Z,21.97
2019-06-01T09:19:45.437Z,21.99
2019-06-01T09:24:53.302Z,22.14
2019-06-01T09:29:56.894Z,22.23
2019-06-01T09:35:01.756Z,22.09
2019-06-01T09:40:07.724Z,22.36
2019-06-01T09:45:13.415Z,22.65
2019-06-01T09:50:18.547Z,22.65
2019-06-01T09:55:23.444Z,22.66
2019-06-01T10:00:28.381Z,22.76
2019-06-01T10:05:34.692Z,22.59
2019-06-01T10:10:39.908Z,22.82
2019-06-01T10:15:44.755Z,23.15
2019-06-01T10:20:49.606Z,23.00
2019-06-01T10:26:02.422Z,23.39
2019-06-01T10:31:07.390Z,22.92
2019-06-01T10:36:20.611Z,23.25
2019-06-01T10:41:18.842Z,22.81
2019-06-01T10:46:23.710Z,22.94
2019-06-01T10:51:28.531Z,23.47
2019-06-01T10:56:34.398Z,23.51
2019-06-01T11:01:40.708Z,23.78
2019-06-01T11:06:48.679Z,24.54
2019-06-01T11:11:52.562Z,24.00
2019-06-01T11:16:57.423Z,24.15
2019-06-01T11:22:02.314Z,24.38
2019-06-01T11:27:07.537Z,25.28
2019-06-01T11:32:12.531Z,26.27
2019-06-01T11:37:17.373Z,26.94
2019-06-01T11:42:22.234Z,27.47
2019-06-01T11:47:27.362Z,29.87
2019-06-01T11:52:32.262Z,29.42
2019-06-01T11:57:37.543Z,29.90
2019-06-01T12:02:43.789Z,31.07
2019-06-01T12:07:48.793Z,33.08
2019-06-01T12:12:53.664Z,33.59
2019-06-01T12:17:58.530Z,29.65
2019-06-01T12:23:03.408Z,30.36
2019-06-01T12:28:08.259Z,32.61
2019-06-01T12:33:13.118Z,30.14
2019-06-01T12:38:18.034Z,32.63
2019-06-01T12:43:22.893Z,32.01
2019-06-01T12:48:27.751Z,33.45
2019-06-01T12:53:32.602Z,32.65
2019-06-01T12:58:37.450Z,32.29
2019-06-01T13:03:43.140Z,32.94
2019-06-01T13:08:48.934Z,30.71
2019-06-01T13:13:53.836Z,32.45
2019-06-01T13:18:58.691Z,33.44
2019-06-01T13:24:04.818Z,31.62
2019-06-01T13:29:09.695Z,30.41
2019-06-01T13:34:14.515Z,29.72
2019-06-01T13:39:19.450Z,28.53
2019-06-01T13:44:24.270Z,29.47
2019-06-01T13:49:29.149Z,28.95
2019-06-01T13:54:34.113Z,28.73
2019-06-01T13:59:38.959Z,28.59
2019-06-01T14:04:45.118Z,28.22
2019-06-01T14:10:09.977Z,27.77
2019-06-01T14:15:38.856Z,27.55
2019-06-01T14:21:15.178Z,27.88
2019-06-01T14:26:30.462Z,27.95
2019-06-01T14:31:39.813Z,27.83
2019-06-01T14:37:10.209Z,27.86
2019-06-01T14:42:40.108Z,27.70
2019-06-01T14:53:53.869Z,27.02
2019-06-01T14:59:12.366Z,27.46
2019-06-01T15:04:17.427Z,27.18
2019-06-01T15:09:24.967Z,27.43
2019-06-01T15:14:37.221Z,27.46
2019-06-01T15:19:45.746Z,27.48
2019-06-01T15:24:52.290Z,27.21
2019-06-01T15:30:35.110Z,27.21
2019-06-01T15:35:36.068Z,27.28
2019-06-01T15:40:40.920Z,27.37
2019-06-01T15:45:45.884Z,27.23
2019-06-01T15:50:51.588Z,27.05
2019-06-01T15:55:56.658Z,27.30
2019-06-01T16:01:03.072Z,27.23
2019-06-01T16:06:08.059Z,27.29
2019-06-01T16:11:13.297Z,27.42
2019-06-01T16:16:18.246Z,26.97
2019-06-01T16:21:23.072Z,26.97
2019-06-01T16:26:27.920Z,27.37
2019-06-01T16:31:32.806Z,27.61
2019-06-01T16:36:37.664Z,27.22
2019-06-01T16:41:42.582Z,27.03
2019-06-01T16:46:47.435Z,26.93
2019-06-01T16:51:59.212Z,26.86
2019-06-01T16:57:05.364Z,26.62
2019-06-01T17:02:10.309Z,26.77
2019-06-01T17:07:15.468Z,26.67
2019-06-01T17:12:24.985Z,26.55
2019-06-01T17:17:41.737Z,26.51
2019-06-01T17:22:46.587Z,26.31
2019-06-01T17:27:51.451Z,26.35
2019-06-01T17:32:56.316Z,26.28
2019-06-01T17:38:01.252Z,26.28
2019-06-01T17:43:06.972Z,26.14
2019-06-01T17:48:24.791Z,26.03
2019-06-01T17:53:18.667Z,25.94
2019-06-01T17:58:23.517Z,25.84
2019-06-01T18:03:28.445Z,25.72
2019-06-01T18:08:33.298Z,25.60
2019-06-01T18:13:38.115Z,25.54
2019-06-01T18:18:42.965Z,25.41
2019-06-01T18:23:49.271Z,25.24
2019-06-01T18:28:54.249Z,25.07
2019-06-01T18:33:59.388Z,24.85
2019-06-01T18:39:07.495Z,24.68
2019-06-01T18:44:37.097Z,24.68
2019-06-01T18:49:42.124Z,24.46
2019-06-01T18:55:10.579Z,24.44
2019-06-01T19:00:16.279Z,24.25
2019-06-01T19:05:21.155Z,24.34
2019-06-01T19:10:25.979Z,24.36
2019-06-01T19:15:30.897Z,24.29
2019-06-01T19:20:35.760Z,24.04
2019-06-01T19:25:40.622Z,23.85
2019-06-01T19:30:45.758Z,23.99
2019-06-01T19:35:53.182Z,23.95
2019-06-01T19:40:58.011Z,23.94
2019-06-01T19:46:02.876Z,23.73
2019-06-01T19:51:08.650Z,23.69
2019-06-01T19:56:14.926Z,23.62
2019-06-01T20:01:19.946Z,23.39
2019-06-01T20:06:24.928Z,23.14
2019-06-01T20:11:29.774Z,22.99
2019-06-01T20:16:34.792Z,22.79
2019-06-01T20:21:39.759Z,22.72
2019-06-01T20:26:48.937Z,22.76
2019-06-01T20:31:51.264Z,22.62
2019-06-01T20:36:56.105Z,22.58
2019-06-01T20:42:19.971Z,22.42
2019-06-01T20:47:07.742Z,22.27
2019-06-01T20:52:12.827Z,22.17
2019-06-01T20:57:17.747Z,22.04
2019-06-01T21:02:24.056Z,22.07
2019-06-01T21:07:29.181Z,22.06
2019-06-01T21:12:44.640Z,21.98
2019-06-01T21:17:40.717Z,21.91
2019-06-01T21:23:04.716Z,21.83
2019-06-01T21:28:14.109Z,21.83
2019-06-01T21:33:16.961Z,21.57
2019-06-01T21:44:03.587Z,21.50
2019-06-01T21:49:08.611Z,21.36
2019-06-01T21:54:13.536Z,21.42
2019-06-01T21:59:18.581Z,21.50
2019-06-01T22:04:23.429Z,21.40
2019-06-01T22:09:28.282Z,21.37
2019-06-01T22:14:33.232Z,21.48
2019-06-01T22:19:42.615Z,21.43
2019-06-01T22:24:47.555Z,21.24
2019-06-01T22:29:54.170Z,21.36
2019-06-01T22:35:03.879Z,21.32
2019-06-01T22:40:14.244Z,21.22
2019-06-01T22:45:20.103Z,21.19
2019-06-01T22:50:24.998Z,21.02
2019-06-01T22:55:29.840Z,20.95
2019-06-01T23:06:53.101Z,20.72
2019-06-01T23:11:30.207Z,20.66
2019-06-01T23:16:35.030Z,20.62
2019-06-01T23:21:39.927Z,20.45
2019-06-01T23:26:44.873Z,20.35
2019-06-01T23:32:08.163Z,20.28
2019-06-01T23:37:16.078Z,20.22
2019-06-01T23:42:21.004Z,20.09
2019-06-01T23:47:27.281Z,19.96
2019-06-01T23:52:42.535Z,19.85
2019-06-01T23:57:47.392Z,19.79
